Carnival Triumph — C6FN5 — position and weather

sailwx.info

Track history (hours):
 
Tides and Currents Weather Stations Pressure Air Temp Water Temp Dewpoint Dewpoint Depression Visibility Wind Speed Wind Dir Waves Ship Positions

Carnival Triumph

Operator: Carnival Cruise Lines

Last reported at 2018-Jun-24 20:00 UTC. Time now 2018-Jun-25 00:40 UTC.
Position N 24°24' W 088°30'.

Type: Passenger vessel. MMSI: 308045000.

Wind from 150 at 15 knots

Barometer 1020.5 mb
Air temperature 27.0 ° C
Visibility: greater than 5.4 NM
Dewpoint 24.3 ° C
Water temperature 27.0 ° C

Date/timePositionNaut miles runAvg speedWind from/ knotsBaromVisibWave heightAir tempDewpointWater temp
2018-Jun-24 20:00N 24°24' W 088°30'21916.9 150 / 151020.5 5.4 27.024.327.0
2018-Jun-24 07:00N 28°00' W 089°12'66 1.8 180 / 201019.0 5.4 27.024.327.0
2018-Jun-22 19:00N 26°54' W 089°18'23416.7 210 / 101019.7 5.4 29.026.327.0
2018-Jun-22 05:00N 23°00' W 089°18'3617.6 100 / 271018.3 5.4 27.024.327.0
2018-Jun-22 02:56N 22°24' W 089°19'614.3
2018-Jun-22 02:30N 22°18' W 089°22'815.1
2018-Jun-22 02:00N 22°11' W 089°24'714.1
2018-Jun-22 01:30N 22°04' W 089°27'714.4
2018-Jun-22 01:00N 21°58' W 089°30'714.3
2018-Jun-22 00:29N 21°51' W 089°32'714.1
2018-Jun-21 23:59N 21°44' W 089°35'715.0
2018-Jun-21 23:30N 21°37' W 089°38'713.0
2018-Jun-21 23:00N 21°31' W 089°40'612.3
2018-Jun-21 22:30N 21°25' W 089°41'5 6.5
2018-Jun-21 21:47N 21°21' W 089°41'0 0.0
2018-Jun-21 21:25N 21°21' W 089°41'0 0.0
2018-Jun-21 20:58N 21°21' W 089°41'0 0.0
2018-Jun-21 20:29N 21°21' W 089°41'0 0.0
2018-Jun-21 19:56N 21°21' W 089°41'0 0.0
2018-Jun-21 19:26N 21°21' W 089°41'0 0.0
2018-Jun-21 18:58N 21°21' W 089°41'0 0.0
2018-Jun-21 18:28N 21°21' W 089°41'0 0.0
2018-Jun-21 17:59N 21°21' W 089°41'0 0.0
2018-Jun-21 17:28N 21°21' W 089°41'0 0.0
2018-Jun-21 16:58N 21°21' W 089°41'0 0.0
2018-Jun-21 16:23N 21°21' W 089°41'0 0.0
2018-Jun-21 15:57N 21°21' W 089°41'0 0.0
2018-Jun-21 15:30N 21°21' W 089°41'0 0.0
2018-Jun-21 15:00N 21°21' W 089°41'0 0.0
2018-Jun-21 14:30N 21°21' W 089°41'0 0.0
2018-Jun-21 14:01N 21°21' W 089°41'1 2.5
2018-Jun-21 13:30N 21°22' W 089°41'611.6
2018-Jun-21 12:59N 21°27' W 089°40'917.0
2018-Jun-21 12:29N 21°30' W 089°31'917.2
2018-Jun-21 11:59N 21°32' W 089°22'9415.7
2018-Jun-21 06:00N 21°48' W 087°42'8212.1 140 / 101017.3 5.4 25.022.223.0
2018-Jun-20 23:10N 20°40' W 086°52'319.2
2018-Jun-20 23:00N 20°38' W 086°54'917.2
2018-Jun-20 22:30N 20°30' W 086°59'2 2.8
2018-Jun-20 21:55N 20°29' W 086°59'0 0.0
2018-Jun-20 21:25N 20°29' W 086°59'0 0.0
2018-Jun-20 20:55N 20°29' W 086°59'0 0.0
2018-Jun-20 20:25N 20°29' W 086°59'0 0.0
2018-Jun-20 19:55N 20°29' W 086°59'0 0.0
2018-Jun-20 19:25N 20°29' W 086°59'0 0.0
2018-Jun-20 18:55N 20°29' W 086°59'0 0.0
2018-Jun-20 18:25N 20°29' W 086°59'0 0.0
2018-Jun-20 17:55N 20°29' W 086°59'0 0.0
2018-Jun-20 17:25N 20°29' W 086°59'0 0.0
2018-Jun-20 16:55N 20°29' W 086°59'0 0.0
2018-Jun-20 16:25N 20°29' W 086°59'0 0.0
2018-Jun-20 15:55N 20°29' W 086°59'0 0.0
2018-Jun-20 15:25N 20°29' W 086°59'0 0.0
2018-Jun-20 14:55N 20°29' W 086°59'0 0.0
2018-Jun-20 14:25N 20°29' W 086°59'0 0.0
2018-Jun-20 13:55N 20°29' W 086°59'0 0.0
2018-Jun-20 13:25N 20°29' W 086°59'0 0.0
2018-Jun-20 12:55N 20°29' W 086°59'0 0.4
2018-Jun-20 12:31N 20°29' W 086°59'5 9.1
2018-Jun-20 12:00N 20°33' W 086°58'8113.5
2018-Jun-20 06:00N 21°54' W 086°48'22418.7 160 / 111018.3 5.4 27.024.327.0
2018-Jun-19 18:00N 25°06' W 088°54'28515.0 140 / 101020.4 5.4 27.024.328.0
2018-Jun-18 23:00N 29°45' W 090°01'713.5
2018-Jun-18 22:30N 29°51' W 089°59'4 4.6
2018-Jun-18 21:38N 29°55' W 089°58'111.5
2018-Jun-18 21:30N 29°56' W 089°60'46511.8
2018-Jun-17 06:00N 22°48' W 086°36'12617.5 120 / 301019.9 5.4 27.025.727.0
2018-Jun-16 22:47N 20°43' W 086°50'620.7
2018-Jun-16 22:31N 20°38' W 086°54'1019.1
2018-Jun-16 22:00N 20°30' W 086°59'1 2.6
2018-Jun-16 21:30N 20°29' W 086°59'0 0.0
2018-Jun-16 21:00N 20°29' W 086°59'0 0.0
2018-Jun-16 20:30N 20°29' W 086°59'0 0.0
2018-Jun-16 20:00N 20°29' W 086°59'0 0.0
2018-Jun-16 19:27N 20°29' W 086°59'0 0.0
2018-Jun-16 19:00N 20°29' W 086°59'0 0.0
2018-Jun-16 18:30N 20°29' W 086°59'0 0.0
2018-Jun-16 18:00N 20°29' W 086°59'0 0.0
2018-Jun-16 17:30N 20°29' W 086°59'0 0.0
2018-Jun-16 17:00N 20°29' W 086°59'0 0.0
2018-Jun-16 16:30N 20°29' W 086°59'0 0.0
2018-Jun-16 16:00N 20°29' W 086°59'0 0.0
2018-Jun-16 15:30N 20°29' W 086°59'0 0.0
2018-Jun-16 15:00N 20°29' W 086°59'0 0.0
2018-Jun-16 14:30N 20°29' W 086°59'0 0.0
2018-Jun-16 14:00N 20°29' W 086°59'0 0.0
2018-Jun-16 13:30N 20°29' W 086°59'0 0.0
2018-Jun-16 13:00N 20°29' W 086°59'0 0.0
2018-Jun-16 12:30N 20°29' W 086°59'0 0.0
2018-Jun-16 12:00N 20°29' W 086°59'2 4.9
2018-Jun-16 11:30N 20°31' W 086°59'  
Track history (hours):
 
Tides and Currents Weather Stations Pressure Air Temp Water Temp Dewpoint Dewpoint Depression Visibility Wind Speed Wind Dir Waves Ship Positions

Carnival Triumph

Operator: Carnival Cruise Lines

Last reported at 2018-Jun-24 20:00 UTC. Time now 2018-Jun-25 00:40 UTC.
Position N 24°24' W 088°30'.

Type: Passenger vessel. MMSI: 308045000.

Wind from 150 at 15 knots

Barometer 1020.5 mb
Air temperature 27.0 ° C
Visibility: greater than 5.4 NM
Dewpoint 24.3 ° C
Water temperature 27.0 ° C

Date/timePositionNaut miles runAvg speedWind from/ knotsBaromVisibWave heightAir tempDewpointWater temp
2018-Jun-24 20:00N 24°24' W 088°30'21916.9 150 / 151020.5 5.4 27.024.327.0
2018-Jun-24 07:00N 28°00' W 089°12'66 1.8 180 / 201019.0 5.4 27.024.327.0
2018-Jun-22 19:00N 26°54' W 089°18'23416.7 210 / 101019.7 5.4 29.026.327.0
2018-Jun-22 05:00N 23°00' W 089°18'3617.6 100 / 271018.3 5.4 27.024.327.0
2018-Jun-22 02:56N 22°24' W 089°19'614.3
2018-Jun-22 02:30N 22°18' W 089°22'815.1
2018-Jun-22 02:00N 22°11' W 089°24'714.1
2018-Jun-22 01:30N 22°04' W 089°27'714.4
2018-Jun-22 01:00N 21°58' W 089°30'714.3
2018-Jun-22 00:29N 21°51' W 089°32'714.1
2018-Jun-21 23:59N 21°44' W 089°35'715.0
2018-Jun-21 23:30N 21°37' W 089°38'713.0
2018-Jun-21 23:00N 21°31' W 089°40'612.3
2018-Jun-21 22:30N 21°25' W 089°41'5 6.5
2018-Jun-21 21:47N 21°21' W 089°41'0 0.0
2018-Jun-21 21:25N 21°21' W 089°41'0 0.0
2018-Jun-21 20:58N 21°21' W 089°41'0 0.0
2018-Jun-21 20:29N 21°21' W 089°41'0 0.0
2018-Jun-21 19:56N 21°21' W 089°41'0 0.0
2018-Jun-21 19:26N 21°21' W 089°41'0 0.0
2018-Jun-21 18:58N 21°21' W 089°41'0 0.0
2018-Jun-21 18:28N 21°21' W 089°41'0 0.0
2018-Jun-21 17:59N 21°21' W 089°41'0 0.0
2018-Jun-21 17:28N 21°21' W 089°41'0 0.0
2018-Jun-21 16:58N 21°21' W 089°41'0 0.0
2018-Jun-21 16:23N 21°21' W 089°41'0 0.0
2018-Jun-21 15:57N 21°21' W 089°41'0 0.0
2018-Jun-21 15:30N 21°21' W 089°41'0 0.0
2018-Jun-21 15:00N 21°21' W 089°41'0 0.0
2018-Jun-21 14:30N 21°21' W 089°41'0 0.0
2018-Jun-21 14:01N 21°21' W 089°41'1 2.5
2018-Jun-21 13:30N 21°22' W 089°41'611.6
2018-Jun-21 12:59N 21°27' W 089°40'917.0
2018-Jun-21 12:29N 21°30' W 089°31'917.2
2018-Jun-21 11:59N 21°32' W 089°22'9415.7
2018-Jun-21 06:00N 21°48' W 087°42'8212.1 140 / 101017.3 5.4 25.022.223.0
2018-Jun-20 23:10N 20°40' W 086°52'319.2
2018-Jun-20 23:00N 20°38' W 086°54'917.2
2018-Jun-20 22:30N 20°30' W 086°59'2 2.8
2018-Jun-20 21:55N 20°29' W 086°59'0 0.0
2018-Jun-20 21:25N 20°29' W 086°59'0 0.0
2018-Jun-20 20:55N 20°29' W 086°59'0 0.0
2018-Jun-20 20:25N 20°29' W 086°59'0 0.0
2018-Jun-20 19:55N 20°29' W 086°59'0 0.0
2018-Jun-20 19:25N 20°29' W 086°59'0 0.0
2018-Jun-20 18:55N 20°29' W 086°59'0 0.0
2018-Jun-20 18:25N 20°29' W 086°59'0 0.0
2018-Jun-20 17:55N 20°29' W 086°59'0 0.0
2018-Jun-20 17:25N 20°29' W 086°59'0 0.0
2018-Jun-20 16:55N 20°29' W 086°59'0 0.0
2018-Jun-20 16:25N 20°29' W 086°59'0 0.0
2018-Jun-20 15:55N 20°29' W 086°59'0 0.0
2018-Jun-20 15:25N 20°29' W 086°59'0 0.0
2018-Jun-20 14:55N 20°29' W 086°59'0 0.0
2018-Jun-20 14:25N 20°29' W 086°59'0 0.0
2018-Jun-20 13:55N 20°29' W 086°59'0 0.0
2018-Jun-20 13:25N 20°29' W 086°59'0 0.0
2018-Jun-20 12:55N 20°29' W 086°59'0 0.4
2018-Jun-20 12:31N 20°29' W 086°59'5 9.1
2018-Jun-20 12:00N 20°33' W 086°58'8113.5
2018-Jun-20 06:00N 21°54' W 086°48'22418.7 160 / 111018.3 5.4 27.024.327.0
2018-Jun-19 18:00N 25°06' W 088°54'28515.0 140 / 101020.4 5.4 27.024.328.0
2018-Jun-18 23:00N 29°45' W 090°01'713.5
2018-Jun-18 22:30N 29°51' W 089°59'4 4.6
2018-Jun-18 21:38N 29°55' W 089°58'111.5
2018-Jun-18 21:30N 29°56' W 089°60'46511.8
2018-Jun-17 06:00N 22°48' W 086°36'12617.5 120 / 301019.9 5.4 27.025.727.0
2018-Jun-16 22:47N 20°43' W 086°50'620.7
2018-Jun-16 22:31N 20°38' W 086°54'1019.1
2018-Jun-16 22:00N 20°30' W 086°59'1 2.6
2018-Jun-16 21:30N 20°29' W 086°59'0 0.0
2018-Jun-16 21:00N 20°29' W 086°59'0 0.0
2018-Jun-16 20:30N 20°29' W 086°59'0 0.0
2018-Jun-16 20:00N 20°29' W 086°59'0 0.0
2018-Jun-16 19:27N 20°29' W 086°59'0 0.0
2018-Jun-16 19:00N 20°29' W 086°59'0 0.0
2018-Jun-16 18:30N 20°29' W 086°59'0 0.0
2018-Jun-16 18:00N 20°29' W 086°59'0 0.0
2018-Jun-16 17:30N 20°29' W 086°59'0 0.0
2018-Jun-16 17:00N 20°29' W 086°59'0 0.0
2018-Jun-16 16:30N 20°29' W 086°59'0 0.0
2018-Jun-16 16:00N 20°29' W 086°59'0 0.0
2018-Jun-16 15:30N 20°29' W 086°59'0 0.0
2018-Jun-16 15:00N 20°29' W 086°59'0 0.0
2018-Jun-16 14:30N 20°29' W 086°59'0 0.0
2018-Jun-16 14:00N 20°29' W 086°59'0 0.0
2018-Jun-16 13:30N 20°29' W 086°59'0 0.0
2018-Jun-16 13:00N 20°29' W 086°59'0 0.0
2018-Jun-16 12:30N 20°29' W 086°59'0 0.0
2018-Jun-16 12:00N 20°29' W 086°59'2 4.9
2018-Jun-16 11:30N 20°31' W 086°59'  

Dump ship's entire track history